createdAt,value
2022-08-16T00:03:20.938Z,15.10
2022-08-16T00:08:37.161Z,14.43
2022-08-16T00:13:43.387Z,14.60
2022-08-16T00:18:56.774Z,13.53
2022-08-16T00:24:04.579Z,13.33
2022-08-16T00:29:13.029Z,14.80
2022-08-16T00:34:43.516Z,14.77
2022-08-16T00:39:58.087Z,14.50
2022-08-16T00:45:08.305Z,14.53
2022-08-16T00:50:13.617Z,15.73
2022-08-16T00:55:15.947Z,14.37
2022-08-16T01:00:23.887Z,14.83
2022-08-16T01:05:29.209Z,15.07
2022-08-16T01:10:34.947Z,14.30
2022-08-16T01:15:43.783Z,14.93
2022-08-16T01:20:56.625Z,16.43
2022-08-16T01:26:33.524Z,15.20
2022-08-16T01:31:22.872Z,16.53
2022-08-16T01:36:36.309Z,15.77
2022-08-16T01:41:44.189Z,16.47
2022-08-16T01:46:47.807Z,15.43
2022-08-16T01:52:00.565Z,15.50
2022-08-16T01:57:18.110Z,15.13
2022-08-16T02:02:27.438Z,15.27
2022-08-16T02:07:31.300Z,16.17
2022-08-16T02:12:49.981Z,15.90
2022-08-16T02:17:55.624Z,15.93
2022-08-16T02:22:59.655Z,16.10
2022-08-16T02:28:06.823Z,16.47
2022-08-16T02:33:12.219Z,16.63
2022-08-16T02:38:14.644Z,16.93
2022-08-16T02:43:26.684Z,16.33
2022-08-16T02:48:32.132Z,17.17
2022-08-16T02:53:37.588Z,16.97
2022-08-16T02:58:40.217Z,16.17
2022-08-16T03:04:40.040Z,16.50
2022-08-16T03:09:13.579Z,16.33
2022-08-16T03:14:24.658Z,16.80
2022-08-16T03:19:47.953Z,16.07
2022-08-16T03:24:57.868Z,16.20
2022-08-16T03:30:16.025Z,15.97
2022-08-16T03:35:32.784Z,17.00
2022-08-16T03:40:44.026Z,15.73
2022-08-16T03:45:52.453Z,17.40
2022-08-16T03:50:59.928Z,18.53
2022-08-16T03:56:07.945Z,17.90
2022-08-16T04:01:21.737Z,18.07
2022-08-16T04:06:26.732Z,17.50
2022-08-16T04:11:38.031Z,18.03
2022-08-16T04:16:40.890Z,19.37
2022-08-16T04:22:27.333Z,17.87
2022-08-16T04:27:35.117Z,18.23
2022-08-16T04:32:38.156Z,19.03
2022-08-16T04:37:44.323Z,18.20
2022-08-16T04:42:56.258Z,18.90
2022-08-16T04:48:07.246Z,19.57
2022-08-16T04:53:26.207Z,21.03
2022-08-16T04:58:44.599Z,21.37
2022-08-16T05:03:59.687Z,22.57
2022-08-16T05:09:07.010Z,22.93
2022-08-16T05:14:20.027Z,23.57
2022-08-16T05:19:26.159Z,24.33
2022-08-16T05:24:49.539Z,26.23
2022-08-16T05:30:35.514Z,26.03
2022-08-16T05:35:26.828Z,24.33
2022-08-16T05:41:00.276Z,23.93
2022-08-16T05:46:28.701Z,23.70
2022-08-16T05:51:40.168Z,24.37
2022-08-16T05:56:49.005Z,29.13
2022-08-16T06:01:53.304Z,23.83
2022-08-16T06:07:02.575Z,23.23
2022-08-16T06:12:27.321Z,24.37
2022-08-16T06:17:41.739Z,24.83
2022-08-16T06:22:57.449Z,23.97
2022-08-16T06:28:16.696Z,24.80
2022-08-16T06:33:23.280Z,24.30
2022-08-16T06:38:32.581Z,24.90
2022-08-16T06:43:40.060Z,24.23
2022-08-16T06:48:53.491Z,23.43
2022-08-16T06:53:59.534Z,23.30
2022-08-16T06:59:02.522Z,24.23
2022-08-16T07:04:31.909Z,24.70
2022-08-16T07:09:38.562Z,24.25
2022-08-16T07:14:44.766Z,22.53
2022-08-16T07:20:03.403Z,23.97
2022-08-16T07:25:23.663Z,23.88
2022-08-16T07:30:45.631Z,24.33
2022-08-16T07:35:59.753Z,24.03
2022-08-16T07:41:10.187Z,24.00
2022-08-16T07:46:38.904Z,23.33
2022-08-16T07:51:56.083Z,23.27
2022-08-16T07:57:06.087Z,23.17
2022-08-16T08:02:20.361Z,22.08
2022-08-16T08:07:36.787Z,23.48
2022-08-16T08:12:40.033Z,21.98
2022-08-16T08:17:48.865Z,21.63
2022-08-16T08:23:00.652Z,21.00
2022-08-16T08:28:11.013Z,21.77
2022-08-16T08:33:16.623Z,20.42
2022-08-16T08:38:43.677Z,20.88
2022-08-16T08:43:50.417Z,19.42
2022-08-16T08:49:01.988Z,18.90
2022-08-16T08:54:14.297Z,18.08
2022-08-16T08:59:23.669Z,18.85
2022-08-16T09:04:32.593Z,18.33
2022-08-16T09:19:59.433Z,17.50
2022-08-16T09:25:10.952Z,17.98
2022-08-16T09:30:33.274Z,16.45
2022-08-16T09:35:39.482Z,16.30
2022-08-16T09:40:47.150Z,15.82
2022-08-16T09:45:54.555Z,14.75
2022-08-16T09:51:01.802Z,14.38
2022-08-16T09:56:05.324Z,14.93
2022-08-16T10:01:17.107Z,13.95
2022-08-16T10:06:24.454Z,15.25
2022-08-16T10:11:50.393Z,12.98
2022-08-16T10:16:59.657Z,12.63
2022-08-16T10:22:12.909Z,13.15
2022-08-16T10:27:25.615Z,12.23
2022-08-16T10:32:36.960Z,12.07
2022-08-16T10:37:46.460Z,11.93
2022-08-16T10:42:51.313Z,12.10
2022-08-16T10:48:00.484Z,11.88
2022-08-16T10:53:08.235Z,11.45
2022-08-16T10:58:13.424Z,14.65
2022-08-16T11:08:47.224Z,12.13
2022-08-16T11:13:59.602Z,11.40
2022-08-16T11:19:12.279Z,11.73
2022-08-16T11:24:39.990Z,11.02
2022-08-16T11:29:52.260Z,11.07
2022-08-16T11:35:13.361Z,10.82
2022-08-16T11:40:19.517Z,9.95
2022-08-16T11:45:22.011Z,10.07
2022-08-16T11:50:24.662Z,10.27
2022-08-16T11:55:27.150Z,10.90
2022-08-16T12:00:50.341Z,13.15
2022-08-16T12:06:02.379Z,10.27
2022-08-16T12:11:07.243Z,9.90
2022-08-16T12:16:12.296Z,10.57
2022-08-16T12:21:22.804Z,10.60
2022-08-16T12:26:30.522Z,11.02
2022-08-16T12:31:36.224Z,9.90
2022-08-16T12:36:47.014Z,18.10
2022-08-16T12:41:49.371Z,9.88
2022-08-16T12:47:11.167Z,11.60
2022-08-16T12:52:33.179Z,11.25
2022-08-16T12:57:41.151Z,11.25
2022-08-16T13:02:47.040Z,11.68
2022-08-16T13:07:51.371Z,12.23
2022-08-16T13:12:57.522Z,11.55
2022-08-16T13:18:00.226Z,18.88
2022-08-16T13:23:05.391Z,11.38
2022-08-16T13:28:08.424Z,11.10
2022-08-16T13:33:29.790Z,10.18
2022-08-16T13:38:41.353Z,10.23
2022-08-16T13:43:57.957Z,10.68
2022-08-16T13:49:04.746Z,10.02
2022-08-16T13:54:07.944Z,9.98
2022-08-16T13:59:20.482Z,10.70
2022-08-16T14:04:29.941Z,11.10
2022-08-16T14:09:36.993Z,11.30
2022-08-16T14:14:39.931Z,11.02
2022-08-16T14:19:46.174Z,11.40
2022-08-16T14:24:50.312Z,11.15
2022-08-16T14:29:53.810Z,11.02
2022-08-16T14:35:00.397Z,11.57
2022-08-16T14:40:05.883Z,12.48
2022-08-16T14:45:11.707Z,11.88
2022-08-16T14:50:18.945Z,12.52
2022-08-16T14:55:23.824Z,12.50
2022-08-16T15:00:32.933Z,12.43
2022-08-16T15:05:41.545Z,13.18
2022-08-16T15:10:46.615Z,12.40
2022-08-16T15:15:57.597Z,12.38
2022-08-16T15:21:08.615Z,8.93
2022-08-16T15:26:29.679Z,6.80
2022-08-16T15:31:34.258Z,6.00
2022-08-16T15:36:41.213Z,5.90
2022-08-16T15:41:44.794Z,6.15
2022-08-16T15:52:15.179Z,7.57
2022-08-16T15:57:24.982Z,7.47
2022-08-16T16:02:30.927Z,8.23
2022-08-16T16:07:36.877Z,8.00
2022-08-16T16:12:50.799Z,11.93
2022-08-16T16:18:10.042Z,8.37
2022-08-16T16:23:23.529Z,9.67
2022-08-16T16:29:06.701Z,9.10
2022-08-16T16:34:00.487Z,9.10
2022-08-16T16:39:09.248Z,7.70
2022-08-16T16:44:18.128Z,9.53
2022-08-16T16:49:34.587Z,8.37
2022-08-16T16:54:44.164Z,8.70
2022-08-16T16:59:55.644Z,9.30
2022-08-16T17:05:02.607Z,9.10
2022-08-16T17:10:10.558Z,7.43
2022-08-16T17:15:16.306Z,7.97
2022-08-16T17:20:21.716Z,7.80
2022-08-16T17:25:35.073Z,8.93
2022-08-16T17:30:45.320Z,8.83
2022-08-16T17:39:27.263Z,9.20
2022-08-16T17:41:14.536Z,9.10
2022-08-16T17:46:41.258Z,9.83
2022-08-16T17:51:39.726Z,9.83
2022-08-16T17:56:49.026Z,10.30
2022-08-16T18:01:54.092Z,9.50
2022-08-16T18:07:00.162Z,11.47
2022-08-16T18:12:20.482Z,10.53
2022-08-16T18:17:44.361Z,9.80
2022-08-16T18:22:47.697Z,11.70
2022-08-16T18:28:03.707Z,70.23
2022-08-16T18:33:11.135Z,17.50
2022-08-16T18:38:18.412Z,19.20
2022-08-16T18:44:23.910Z,14.57
2022-08-16T18:48:47.906Z,11.97
2022-08-16T18:53:50.492Z,11.87
2022-08-16T18:58:53.381Z,11.77
2022-08-16T19:03:56.109Z,11.97
2022-08-16T19:09:00.736Z,13.87
2022-08-16T19:14:03.132Z,13.77
2022-08-16T19:19:08.044Z,12.40
2022-08-16T19:24:18.248Z,12.47
2022-08-16T19:29:22.038Z,12.30
2022-08-16T19:34:27.394Z,14.77
2022-08-16T19:39:37.967Z,12.93
2022-08-16T19:44:43.441Z,13.10
2022-08-16T19:49:48.514Z,12.77
2022-08-16T19:54:52.392Z,12.03
2022-08-16T19:59:55.027Z,12.80
2022-08-16T20:05:06.925Z,11.43
2022-08-16T20:10:10.346Z,12.60
2022-08-16T20:15:15.926Z,12.70
2022-08-16T20:20:19.997Z,13.20
2022-08-16T20:25:28.394Z,12.90
2022-08-16T20:30:33.736Z,13.63
2022-08-16T20:35:36.229Z,12.97
2022-08-16T20:40:44.628Z,11.50
2022-08-16T20:45:47.105Z,11.97
2022-08-16T20:50:49.471Z,11.50
2022-08-16T20:55:56.991Z,11.20
2022-08-16T21:00:59.687Z,11.10
2022-08-16T21:06:17.294Z,12.17
2022-08-16T21:11:23.633Z,12.17
2022-08-16T21:16:31.360Z,11.37
2022-08-16T21:21:33.713Z,11.93
2022-08-16T21:26:39.270Z,11.67
2022-08-16T21:31:47.433Z,11.73
2022-08-16T21:36:51.976Z,11.37
2022-08-16T21:41:56.759Z,12.17
2022-08-16T21:47:01.604Z,12.13
2022-08-16T21:52:04.757Z,11.70
2022-08-16T21:57:10.729Z,11.63
2022-08-16T22:02:16.208Z,11.97
2022-08-16T22:07:18.758Z,11.73
2022-08-16T22:12:27.213Z,11.57
2022-08-16T22:17:29.572Z,12.63
2022-08-16T22:22:35.220Z,12.47
2022-08-16T22:27:43.725Z,11.47
2022-08-16T22:32:46.228Z,11.67
2022-08-16T22:38:47.811Z,12.43
2022-08-16T22:43:12.265Z,11.43
2022-08-16T22:48:15.449Z,12.23
2022-08-16T22:53:26.996Z,12.97
2022-08-16T22:58:34.634Z,12.43
2022-08-16T23:03:39.635Z,12.07
2022-08-16T23:08:46.806Z,12.30
2022-08-16T23:13:54.029Z,12.27
2022-08-16T23:18:58.979Z,13.10
2022-08-16T23:24:04.714Z,13.47
2022-08-16T23:29:07.029Z,13.07
2022-08-16T23:34:27.558Z,13.50
2022-08-16T23:39:30.000Z,13.40
2022-08-16T23:44:44.197Z,12.43
2022-08-16T23:50:00.718Z,13.70
2022-08-16T23:55:10.562Z,12.77
